Time,TemperatureF,DewpointF,PressureIn,WindDirection,WindDirectionDegrees,WindSpeedMPH,WindSpeedGustMPH,Humidity,HourlyPrecipIn,Conditions,Clouds,dailyrainin,SolarRadiationWatts/m^2,SoftwareType,DateUTC
2013-02-22 00:00:00,47.2,40.5,29.83,ESE,118,0.0,0.0,77,0.00,,,-99.99,1.0,HOBO +U30 +Weather +,2013-02-22 08:00:00,
2013-02-22 00:05:00,46.7,40.5,29.83,ENE,62,0.0,0.0,78,0.00,,,-99.99,1.0,HOBO +U30 +Weather +,2013-02-22 08:05:00,
2013-02-22 00:10:00,46.7,41.1,29.84,NNE,24,0.0,0.0,80,0.00,,,-99.99,1.0,HOBO +U30 +Weather +,2013-02-22 08:10:00,
2013-02-22 00:15:00,46.4,41.4,29.84,NNE,17,0.0,0.0,82,0.00,,,-99.99,1.0,HOBO +U30 +Weather +,2013-02-22 08:15:00,
2013-02-22 00:20:00,46.3,41.6,29.84,NNE,17,0.0,0.0,83,0.00,,,-99.99,1.0,HOBO +U30 +Weather +,2013-02-22 08:20:00,
2013-02-22 00:25:00,45.9,41.2,29.85,NNE,17,0.0,0.0,83,0.00,,,-99.99,1.0,HOBO +U30 +Weather +,2013-02-22 08:25:00,
2013-02-22 00:30:00,45.9,41.3,29.85,NNE,17,0.0,0.0,83,0.00,,,-99.99,1.0,HOBO +U30 +Weather +,2013-02-22 08:30:00,
2013-02-22 00:35:00,46.3,41.8,29.85,NNE,15,0.0,0.0,84,0.00,,,-99.99,1.0,HOBO +U30 +Weather +,2013-02-22 08:35:00,
2013-02-22 00:40:00,46.4,41.7,29.85,NNE,15,0.0,0.0,83,0.00,,,-99.99,1.0,HOBO +U30 +Weather +,2013-02-22 08:40:00,
2013-02-22 00:45:00,46.3,41.6,29.85,NNE,15,0.0,0.0,83,0.00,,,-99.99,1.0,HOBO +U30 +Weather +,2013-02-22 08:45:00,
2013-02-22 00:50:00,45.8,41.1,29.85,NNE,15,0.0,0.0,83,0.00,,,-99.99,1.0,HOBO +U30 +Weather +,2013-02-22 08:50:00,
2013-02-22 00:55:00,45.9,41.4,29.85,NNE,15,0.0,0.0,83,0.00,,,-99.99,1.0,HOBO +U30 +Weather +,2013-02-22 08:55:00,
2013-02-22 01:00:00,45.5,40.9,29.85,NNE,15,0.0,0.0,83,0.00,,,-99.99,1.0,HOBO +U30 +Weather +,2013-02-22 09:00:00,
2013-02-22 01:05:00,45.4,40.9,29.85,NNE,15,0.0,0.0,84,0.00,,,-99.99,1.0,HOBO +U30 +Weather +,2013-02-22 09:05:00,
2013-02-22 01:15:00,45.3,40.9,29.85,NNE,15,0.0,0.0,84,0.00,,,-99.99,1.0,HOBO +U30 +Weather +,2013-02-22 09:15:00,
2013-02-22 01:20:00,44.9,40.4,29.85,NNE,15,0.0,0.0,84,0.00,,,-99.99,1.0,HOBO +U30 +Weather +,2013-02-22 09:20:00,
2013-02-22 01:25:00,44.7,40.3,29.85,NNE,15,0.0,0.0,84,0.00,,,-99.99,1.0,HOBO +U30 +Weather +,2013-02-22 09:25:00,
2013-02-22 01:30:00,45.3,41.0,29.85,NNE,15,0.0,0.0,84,0.00,,,-99.99,1.0,HOBO +U30 +Weather +,2013-02-22 09:30:00,
2013-02-22 01:35:00,45.3,41.2,29.85,NNE,15,0.0,0.0,85,0.00,,,-99.99,1.0,HOBO +U30 +Weather +,2013-02-22 09:35:00,
2013-02-22 01:40:00,45.6,41.8,29.85,NNE,15,0.0,0.0,86,0.00,,,-99.99,1.0,HOBO +U30 +Weather +,2013-02-22 09:40:00,
2013-02-22 01:45:00,45.0,41.3,29.85,NNE,15,0.0,0.0,86,0.00,,,-99.99,1.0,HOBO +U30 +Weather +,2013-02-22 09:45:00,
2013-02-22 01:50:00,45.5,41.8,29.85,NNE,15,0.0,0.0,86,0.00,,,-99.99,1.0,HOBO +U30 +Weather +,2013-02-22 09:50:00,
2013-02-22 01:55:00,45.9,42.3,29.85,NNE,15,0.0,0.0,87,0.00,,,-99.99,1.0,HOBO +U30 +Weather +,2013-02-22 09:55:00,
2013-02-22 02:00:00,45.8,42.3,29.85,NNE,15,0.0,0.0,87,0.00,,,-99.99,1.0,HOBO +U30 +Weather +,2013-02-22 10:00:00,
2013-02-22 02:05:00,45.4,42.0,29.85,NNE,15,0.0,0.0,87,0.00,,,-99.99,1.0,HOBO +U30 +Weather +,2013-02-22 10:05:00,
2013-02-22 02:10:00,45.3,41.9,29.85,NNE,15,0.0,0.0,88,0.00,,,-99.99,1.0,HOBO +U30 +Weather +,2013-02-22 10:10:00,
2013-02-22 02:15:00,45.2,42.1,29.85,NNE,15,0.0,0.0,88,0.00,,,-99.99,1.0,HOBO +U30 +Weather +,2013-02-22 10:15:00,
2013-02-22 02:20:00,45.1,42.1,29.85,NNE,15,0.0,0.0,89,0.00,,,-99.99,1.0,HOBO +U30 +Weather +,2013-02-22 10:20:00,
2013-02-22 02:25:00,45.2,42.3,29.85,NNE,15,0.0,0.0,89,0.00,,,-99.99,1.0,HOBO +U30 +Weather +,2013-02-22 10:25:00,
2013-02-22 02:30:00,45.4,42.5,29.85,NNE,15,0.0,0.0,89,0.00,,,-99.99,1.0,HOBO +U30 +Weather +,2013-02-22 10:30:00,
2013-02-22 02:35:00,45.2,42.4,29.85,NNE,15,0.0,0.0,89,0.00,,,-99.99,1.0,HOBO +U30 +Weather +,2013-02-22 10:35:00,
2013-02-22 02:40:00,44.6,41.8,29.85,NNE,15,0.0,0.0,89,0.00,,,-99.99,1.0,HOBO +U30 +Weather +,2013-02-22 10:40:00,
2013-02-22 02:45:00,44.5,41.7,29.84,NNE,15,0.0,0.0,89,0.00,,,-99.99,1.0,HOBO +U30 +Weather +,2013-02-22 10:45:00,
2013-02-22 02:50:00,45.0,42.3,29.84,NNE,15,0.0,0.0,90,0.00,,,-99.99,1.0,HOBO +U30 +Weather +,2013-02-22 10:50:00,
2013-02-22 02:55:00,45.4,42.8,29.84,NNE,15,0.0,0.0,90,0.00,,,-99.99,1.0,HOBO +U30 +Weather +,2013-02-22 10:55:00,
2013-02-22 03:00:00,45.1,42.6,29.84,NNE,15,0.0,0.0,90,0.00,,,-99.99,1.0,HOBO +U30 +Weather +,2013-02-22 11:00:00,
2013-02-22 03:05:00,45.2,42.7,29.84,NNE,15,0.0,0.0,91,0.00,,,-99.99,1.0,HOBO +U30 +Weather +,2013-02-22 11:05:00,
2013-02-22 03:10:00,45.1,42.8,29.85,NNE,15,0.0,0.0,91,0.00,,,-99.99,1.0,HOBO +U30 +Weather +,2013-02-22 11:10:00,
2013-02-22 03:15:00,45.0,42.7,29.85,NNE,15,0.0,0.0,91,0.00,,,-99.99,1.0,HOBO +U30 +Weather +,2013-02-22 11:15:00,
2013-02-22 03:20:00,44.9,42.7,29.85,NNE,15,0.0,0.0,91,0.00,,,-99.99,1.0,HOBO +U30 +Weather +,2013-02-22 11:20:00,
2013-02-22 03:25:00,44.8,42.6,29.85,NNE,15,0.0,0.0,92,0.00,,,-99.99,1.0,HOBO +U30 +Weather +,2013-02-22 11:25:00,
2013-02-22 03:30:00,44.8,42.7,29.85,NNE,15,0.0,0.7,92,0.00,,,-99.99,1.0,HOBO +U30 +Weather +,2013-02-22 11:30:00,
2013-02-22 03:35:00,44.9,42.9,29.84,NNE,15,0.0,0.7,92,0.00,,,-99.99,1.0,HOBO +U30 +Weather +,2013-02-22 11:35:00,
2013-02-22 03:40:00,45.0,42.9,29.85,East,95,0.0,0.7,92,0.00,,,-99.99,1.0,HOBO +U30 +Weather +,2013-02-22 11:40:00,
2013-02-22 03:45:00,44.9,42.8,29.85,SE,145,0.0,1.8,92,0.00,,,-99.99,1.0,HOBO +U30 +Weather +,2013-02-22 11:45:00,
2013-02-22 03:50:00,44.3,42.3,29.85,SSE,160,0.0,0.0,92,0.00,,,-99.99,1.0,HOBO +U30 +Weather +,2013-02-22 11:50:00,
2013-02-22 03:55:00,44.3,42.3,29.85,SSE,160,0.0,0.0,92,0.00,,,-99.99,1.0,HOBO +U30 +Weather +,2013-02-22 11:55:00,
2013-02-22 04:00:00,44.5,42.5,29.85,SSE,160,0.0,0.0,92,0.00,,,-99.99,1.0,HOBO +U30 +Weather +,2013-02-22 12:00:00,
2013-02-22 04:05:00,44.7,42.8,29.86,WSW,258,0.0,2.9,93,0.00,,,-99.99,1.0,HOBO +U30 +Weather +,2013-02-22 12:05:00,
2013-02-22 04:10:00,44.6,42.9,29.86,WNW,296,0.0,2.9,93,0.00,,,-99.99,1.0,HOBO +U30 +Weather +,2013-02-22 12:10:00,
2013-02-22 04:15:00,44.3,42.7,29.86,WNW,293,0.0,3.4,93,0.00,,,-99.99,1.0,HOBO +U30 +Weather +,2013-02-22 12:15:00,
2013-02-22 04:20:00,44.7,43.1,29.86,WNW,291,0.0,1.8,94,0.00,,,-99.99,1.0,HOBO +U30 +Weather +,2013-02-22 12:20:00,
2013-02-22 04:25:00,44.5,43.1,29.86,WNW,292,0.0,0.0,94,0.00,,,-99.99,1.0,HOBO +U30 +Weather +,2013-02-22 12:25:00,
2013-02-22 04:30:00,44.0,42.5,29.85,WNW,292,0.0,0.0,94,0.00,,,-99.99,1.0,HOBO +U30 +Weather +,2013-02-22 12:30:00,
2013-02-22 04:35:00,44.0,42.4,29.85,WNW,292,0.0,0.0,94,0.00,,,-99.99,1.0,HOBO +U30 +Weather +,2013-02-22 12:35:00,
2013-02-22 04:40:00,43.7,42.1,29.85,WNW,292,0.0,0.0,94,0.00,,,-99.99,1.0,HOBO +U30 +Weather +,2013-02-22 12:40:00,
2013-02-22 04:45:00,43.8,42.3,29.85,WNW,292,0.0,0.0,94,0.00,,,-99.99,1.0,HOBO +U30 +Weather +,2013-02-22 12:45:00,
2013-02-22 04:50:00,44.0,42.5,29.85,WNW,292,0.0,0.0,94,0.00,,,-99.99,1.0,HOBO +U30 +Weather +,2013-02-22 12:50:00,
2013-02-22 04:55:00,44.4,43.1,29.85,SW,219,0.0,0.7,95,0.00,,,-99.99,1.0,HOBO +U30 +Weather +,2013-02-22 12:55:00,
2013-02-22 05:00:00,44.6,43.2,29.85,SSW,201,0.0,0.0,94,0.00,,,-99.99,1.0,HOBO +U30 +Weather +,2013-02-22 13:00:00,
2013-02-22 05:05:00,44.6,43.2,29.86,SSW,201,0.0,0.0,94,0.00,,,-99.99,1.0,HOBO +U30 +Weather +,2013-02-22 13:05:00,
2013-02-22 05:10:00,44.3,42.9,29.86,SSW,201,0.0,0.0,94,0.00,,,-99.99,1.0,HOBO +U30 +Weather +,2013-02-22 13:10:00,
2013-02-22 05:15:00,44.0,42.6,29.87,SW,226,0.0,0.0,94,0.00,,,-99.99,1.0,HOBO +U30 +Weather +,2013-02-22 13:15:00,
2013-02-22 05:20:00,43.8,42.4,29.87,WSW,257,0.0,0.0,94,0.00,,,-99.99,1.0,HOBO +U30 +Weather +,2013-02-22 13:20:00,
2013-02-22 05:25:00,43.5,42.2,29.86,WSW,257,0.0,0.0,94,0.00,,,-99.99,1.0,HOBO +U30 +Weather +,2013-02-22 13:25:00,
2013-02-22 05:30:00,43.7,42.3,29.86,WSW,257,0.0,0.0,94,0.00,,,-99.99,1.0,HOBO +U30 +Weather +,2013-02-22 13:30:00,
2013-02-22 05:35:00,44.0,42.7,29.87,WSW,257,0.0,0.0,95,0.00,,,-99.99,1.0,HOBO +U30 +Weather +,2013-02-22 13:35:00,
2013-02-22 05:40:00,43.8,42.6,29.88,West,267,0.0,0.0,95,0.00,,,-99.99,1.0,HOBO +U30 +Weather +,2013-02-22 13:40:00,
2013-02-22 05:45:00,43.9,42.7,29.88,West,275,0.0,0.0,95,0.00,,,-99.99,1.0,HOBO +U30 +Weather +,2013-02-22 13:45:00,
2013-02-22 05:50:00,43.8,42.7,29.88,WNW,289,0.0,0.7,95,0.00,,,-99.99,1.0,HOBO +U30 +Weather +,2013-02-22 13:50:00,
2013-02-22 05:55:00,43.6,42.5,29.88,NNW,331,0.0,0.7,95,0.00,,,-99.99,1.0,HOBO +U30 +Weather +,2013-02-22 13:55:00,
2013-02-22 06:00:00,43.7,42.7,29.88,NNW,344,0.0,1.1,96,0.00,,,-99.99,1.0,HOBO +U30 +Weather +,2013-02-22 14:00:00,
2013-02-22 06:05:00,43.2,42.2,29.89,North,350,0.0,0.7,96,0.00,,,-99.99,1.0,HOBO +U30 +Weather +,2013-02-22 14:05:00,
2013-02-22 06:10:00,43.4,42.4,29.88,North,350,0.0,0.0,96,0.00,,,-99.99,1.0,HOBO +U30 +Weather +,2013-02-22 14:10:00,
2013-02-22 06:15:00,43.2,42.2,29.88,North,350,0.0,0.7,96,0.00,,,-99.99,1.0,HOBO +U30 +Weather +,2013-02-22 14:15:00,
2013-02-22 06:20:00,43.3,42.4,29.88,North,350,0.0,0.7,96,0.00,,,-99.99,1.0,HOBO +U30 +Weather +,2013-02-22 14:20:00,
2013-02-22 06:25:00,43.4,42.5,29.88,North,350,0.0,0.0,96,0.00,,,-99.99,1.0,HOBO +U30 +Weather +,2013-02-22 14:25:00,
2013-02-22 06:45:00,43.1,42.3,29.88,North,350,0.0,0.0,96,0.00,,,-99.99,2.0,HOBO +U30 +Weather +,2013-02-22 14:45:00,
2013-02-22 07:05:00,44.4,43.6,29.88,SE,140,0.0,1.1,97,0.00,,,-99.99,16.0,HOBO +U30 +Weather +,2013-02-22 15:05:00,
2013-02-22 07:10:00,44.4,43.6,29.89,ESE,107,0.0,1.1,96,0.00,,,-99.99,19.0,HOBO +U30 +Weather +,2013-02-22 15:10:00,
2013-02-22 07:15:00,44.3,43.4,29.89,NE,42,0.0,1.1,96,0.00,,,-99.99,48.0,HOBO +U30 +Weather +,2013-02-22 15:15:00,
2013-02-22 07:20:00,44.5,43.6,29.89,NNE,25,0.0,0.7,96,0.00,,,-99.99,61.0,HOBO +U30 +Weather +,2013-02-22 15:20:00,
2013-02-22 07:25:00,44.6,43.8,29.89,NNE,25,0.0,0.0,96,0.00,,,-99.99,78.0,HOBO +U30 +Weather +,2013-02-22 15:25:00,
2013-02-22 07:30:00,44.8,43.9,29.90,NNE,25,0.0,0.0,96,0.00,,,-99.99,82.0,HOBO +U30 +Weather +,2013-02-22 15:30:00,
2013-02-22 07:35:00,45.0,44.1,29.90,NNE,25,0.0,0.0,96,0.00,,,-99.99,117.0,HOBO +U30 +Weather +,2013-02-22 15:35:00,
2013-02-22 07:40:00,45.2,44.2,29.90,NNE,25,0.0,0.0,96,0.00,,,-99.99,129.0,HOBO +U30 +Weather +,2013-02-22 15:40:00,
2013-02-22 07:45:00,45.6,44.6,29.90,East,90,0.0,4.0,96,0.00,,,-99.99,147.0,HOBO +U30 +Weather +,2013-02-22 15:45:00,
2013-02-22 07:50:00,46.1,45.0,29.90,SSE,159,0.7,5.1,95,0.00,,,-99.99,156.0,HOBO +U30 +Weather +,2013-02-22 15:50:00,
2013-02-22 07:55:00,46.5,45.2,29.90,SE,145,1.8,5.6,95,0.00,,,-99.99,167.0,HOBO +U30 +Weather +,2013-02-22 15:55:00,
2013-02-22 08:00:00,46.7,45.1,29.90,SSE,167,2.2,6.7,94,0.00,,,-99.99,178.0,HOBO +U30 +Weather +,2013-02-22 16:00:00,
2013-02-22 08:05:00,46.8,45.0,29.90,South,171,2.9,5.6,93,0.00,,,-99.99,187.0,HOBO +U30 +Weather +,2013-02-22 16:05:00,
2013-02-22 08:10:00,48.0,46.0,29.90,SSE,161,1.8,5.1,92,0.00,,,-99.99,203.0,HOBO +U30 +Weather +,2013-02-22 16:10:00,
2013-02-22 08:15:00,48.4,45.9,29.90,South,171,2.2,5.6,91,0.00,,,-99.99,217.0,HOBO +U30 +Weather +,2013-02-22 16:15:00,
2013-02-22 08:20:00,48.4,45.6,29.90,South,187,3.4,6.7,90,0.00,,,-99.99,229.0,HOBO +U30 +Weather +,2013-02-22 16:20:00,
2013-02-22 08:25:00,49.0,46.1,29.90,SSW,212,1.1,4.0,89,0.00,,,-99.99,248.0,HOBO +U30 +Weather +,2013-02-22 16:25:00,
2013-02-22 08:30:00,50.1,46.6,29.91,SSE,168,1.1,5.1,87,0.00,,,-99.99,262.0,HOBO +U30 +Weather +,2013-02-22 16:30:00,
2013-02-22 08:35:00,49.4,45.4,29.91,SSW,206,2.9,5.1,85,0.00,,,-99.99,273.0,HOBO +U30 +Weather +,2013-02-22 16:35:00,
2013-02-22 08:40:00,49.4,45.3,29.92,SSW,204,2.2,4.5,85,0.00,,,-99.99,284.0,HOBO +U30 +Weather +,2013-02-22 16:40:00,
2013-02-22 08:45:00,50.6,46.4,29.92,SSW,209,1.1,3.4,85,0.00,,,-99.99,297.0,HOBO +U30 +Weather +,2013-02-22 16:45:00,
2013-02-22 08:50:00,52.1,47.3,29.92,SE,129,0.0,2.2,83,0.00,,,-99.99,311.0,HOBO +U30 +Weather +,2013-02-22 16:50:00,
2013-02-22 08:55:00,52.4,46.7,29.92,SE,142,0.7,3.4,80,0.00,,,-99.99,331.0,HOBO +U30 +Weather +,2013-02-22 16:55:00,
2013-02-22 09:00:00,52.6,46.5,29.92,SE,143,0.0,2.2,79,0.00,,,-99.99,336.0,HOBO +U30 +Weather +,2013-02-22 17:00:00,
2013-02-22 09:05:00,52.9,46.5,29.92,South,181,0.7,3.4,78,0.00,,,-99.99,359.0,HOBO +U30 +Weather +,2013-02-22 17:05:00,
2013-02-22 09:10:00,54.0,47.3,29.92,SSE,159,0.0,2.2,78,0.00,,,-99.99,368.0,HOBO +U30 +Weather +,2013-02-22 17:10:00,
2013-02-22 09:15:00,53.0,45.5,29.92,East,80,0.7,2.9,75,0.00,,,-99.99,313.0,HOBO +U30 +Weather +,2013-02-22 17:15:00,
2013-02-22 09:20:00,52.5,45.2,29.92,NNE,28,0.7,2.9,76,0.00,,,-99.99,364.0,HOBO +U30 +Weather +,2013-02-22 17:20:00,
2013-02-22 09:25:00,53.7,47.6,29.92,NNE,13,0.7,2.9,79,0.00,,,-99.99,413.0,HOBO +U30 +Weather +,2013-02-22 17:25:00,
2013-02-22 09:30:00,54.1,47.5,29.92,North,1,0.0,2.9,78,0.00,,,-99.99,416.0,HOBO +U30 +Weather +,2013-02-22 17:30:00,
2013-02-22 09:35:00,53.2,46.7,29.92,NE,45,1.8,3.4,78,0.00,,,-99.99,423.0,HOBO +U30 +Weather +,2013-02-22 17:35:00,
2013-02-22 09:40:00,54.2,47.8,29.92,North,0,0.0,2.2,78,0.00,,,-99.99,414.0,HOBO +U30 +Weather +,2013-02-22 17:40:00,
2013-02-22 09:45:00,54.4,47.4,29.92,NNE,25,0.7,3.4,77,0.00,,,-99.99,433.0,HOBO +U30 +Weather +,2013-02-22 17:45:00,
2013-02-22 09:50:00,53.8,47.3,29.92,NNE,25,1.8,4.5,78,0.00,,,-99.99,449.0,HOBO +U30 +Weather +,2013-02-22 17:50:00,
2013-02-22 09:55:00,53.9,46.8,29.92,NNE,15,1.1,3.4,76,0.00,,,-99.99,447.0,HOBO +U30 +Weather +,2013-02-22 17:55:00,
2013-02-22 10:00:00,54.6,47.3,29.92,NNE,15,0.7,2.9,76,0.00,,,-99.99,449.0,HOBO +U30 +Weather +,2013-02-22 18:00:00,
2013-02-22 10:05:00,54.3,46.7,29.92,NNE,18,1.1,3.4,75,0.00,,,-99.99,469.0,HOBO +U30 +Weather +,2013-02-22 18:05:00,
2013-02-22 10:10:00,55.9,48.1,29.92,North,6,0.7,3.4,75,0.00,,,-99.99,492.0,HOBO +U30 +Weather +,2013-02-22 18:10:00,
2013-02-22 10:15:00,55.3,46.6,29.92,North,351,1.1,4.5,72,0.00,,,-99.99,486.0,HOBO +U30 +Weather +,2013-02-22 18:15:00,
2013-02-22 10:20:00,56.4,47.9,29.93,NNW,333,0.7,2.2,73,0.00,,,-99.99,486.0,HOBO +U30 +Weather +,2013-02-22 18:20:00,
2013-02-22 10:25:00,57.2,48.3,29.93,WNW,302,0.7,2.2,71,0.00,,,-99.99,506.0,HOBO +U30 +Weather +,2013-02-22 18:25:00,
2013-02-22 10:30:00,56.6,46.7,29.93,North,11,0.7,4.0,69,0.00,,,-99.99,511.0,HOBO +U30 +Weather +,2013-02-22 18:30:00,
2013-02-22 10:35:00,57.6,48.0,29.93,NW,324,0.7,2.9,70,0.00,,,-99.99,516.0,HOBO +U30 +Weather +,2013-02-22 18:35:00,
2013-02-22 10:40:00,58.2,48.0,29.93,WNW,292,0.7,2.9,68,0.00,,,-99.99,532.0,HOBO +U30 +Weather +,2013-02-22 18:40:00,
2013-02-22 10:45:00,58.2,47.5,29.93,NNW,333,0.0,2.2,67,0.00,,,-99.99,541.0,HOBO +U30 +Weather +,2013-02-22 18:45:00,
2013-02-22 10:50:00,58.6,48.1,29.93,WNW,302,0.7,2.2,68,0.00,,,-99.99,548.0,HOBO +U30 +Weather +,2013-02-22 18:50:00,
2013-02-22 10:55:00,58.0,47.6,29.93,NNW,336,0.7,4.5,68,0.00,,,-99.99,557.0,HOBO +U30 +Weather +,2013-02-22 18:55:00,
2013-02-22 11:00:00,57.6,47.5,29.93,NNW,327,0.7,4.0,68,0.00,,,-99.99,564.0,HOBO +U30 +Weather +,2013-02-22 19:00:00,
2013-02-22 11:05:00,57.5,47.6,29.93,NNW,329,0.7,4.5,69,0.00,,,-99.99,571.0,HOBO +U30 +Weather +,2013-02-22 19:05:00,
2013-02-22 11:10:00,58.2,48.3,29.93,NNW,330,0.0,4.0,69,0.00,,,-99.99,573.0,HOBO +U30 +Weather +,2013-02-22 19:10:00,
2013-02-22 11:15:00,59.7,49.5,29.93,West,268,0.7,3.4,68,0.00,,,-99.99,577.0,HOBO +U30 +Weather +,2013-02-22 19:15:00,
2013-02-22 11:20:00,58.2,46.6,29.93,WSW,253,2.2,6.3,65,0.00,,,-99.99,581.0,HOBO +U30 +Weather +,2013-02-22 19:20:00,
2013-02-22 11:25:00,58.1,45.3,29.93,SW,232,2.9,8.5,62,0.00,,,-99.99,582.0,HOBO +U30 +Weather +,2013-02-22 19:25:00,
2013-02-22 11:30:00,58.1,44.5,29.93,SW,220,4.0,9.6,60,0.00,,,-99.99,584.0,HOBO +U30 +Weather +,2013-02-22 19:30:00,
2013-02-22 11:35:00,57.6,44.2,29.93,SW,215,5.1,10.7,60,0.00,,,-99.99,587.0,HOBO +U30 +Weather +,2013-02-22 19:35:00,
2013-02-22 11:40:00,56.4,43.3,29.93,SW,230,5.6,10.1,61,0.00,,,-99.99,586.0,HOBO +U30 +Weather +,2013-02-22 19:40:00,
2013-02-22 11:45:00,56.5,43.3,29.92,SW,232,6.3,9.6,61,0.00,,,-99.99,593.0,HOBO +U30 +Weather +,2013-02-22 19:45:00,
2013-02-22 11:50:00,57.5,43.0,29.92,SW,234,6.3,10.1,58,0.00,,,-99.99,601.0,HOBO +U30 +Weather +,2013-02-22 19:50:00,
2013-02-22 11:55:00,59.1,42.7,29.92,SW,225,4.5,8.5,54,0.00,,,-99.99,603.0,HOBO +U30 +Weather +,2013-02-22 19:55:00,
2013-02-22 12:00:00,59.3,42.9,29.92,SW,233,4.5,9.6,54,0.00,,,-99.99,601.0,HOBO +U30 +Weather +,2013-02-22 20:00:00,
2013-02-22 12:05:00,57.3,42.5,29.92,SW,233,5.6,10.1,57,0.00,,,-99.99,607.0,HOBO +U30 +Weather +,2013-02-22 20:05:00,
2013-02-22 12:10:00,56.1,43.4,29.93,SW,223,7.4,10.7,62,0.00,,,-99.99,606.0,HOBO +U30 +Weather +,2013-02-22 20:10:00,
2013-02-22 12:15:00,55.8,44.0,29.93,WSW,237,7.4,11.2,64,0.00,,,-99.99,607.0,HOBO +U30 +Weather +,2013-02-22 20:15:00,
2013-02-22 12:20:00,56.2,45.2,29.92,SW,236,5.6,11.9,66,0.00,,,-99.99,606.0,HOBO +U30 +Weather +,2013-02-22 20:20:00,
2013-02-22 12:25:00,57.5,46.6,29.92,WSW,239,4.5,10.7,66,0.00,,,-99.99,604.0,HOBO +U30 +Weather +,2013-02-22 20:25:00,
2013-02-22 12:30:00,57.0,46.3,29.92,WSW,241,5.1,9.6,67,0.00,,,-99.99,603.0,HOBO +U30 +Weather +,2013-02-22 20:30:00,
2013-02-22 12:35:00,56.2,45.8,29.92,SW,225,5.6,9.6,68,0.00,,,-99.99,608.0,HOBO +U30 +Weather +,2013-02-22 20:35:00,
2013-02-22 12:40:00,56.9,45.1,29.92,SW,222,5.1,8.5,64,0.00,,,-99.99,602.0,HOBO +U30 +Weather +,2013-02-22 20:40:00,
2013-02-22 12:45:00,57.5,44.9,29.92,SW,232,5.1,8.5,62,0.00,,,-99.99,601.0,HOBO +U30 +Weather +,2013-02-22 20:45:00,
2013-02-22 12:50:00,57.4,43.9,29.91,SW,220,5.1,10.1,60,0.00,,,-99.99,602.0,HOBO +U30 +Weather +,2013-02-22 20:50:00,
2013-02-22 12:55:00,57.0,42.8,29.91,SW,223,5.6,10.7,58,0.00,,,-99.99,598.0,HOBO +U30 +Weather +,2013-02-22 20:55:00,
2013-02-22 13:00:00,58.5,43.2,29.91,SW,229,5.1,10.1,56,0.00,,,-99.99,594.0,HOBO +U30 +Weather +,2013-02-22 21:00:00,
2013-02-22 13:05:00,57.8,41.7,29.91,SW,222,6.3,10.7,54,0.00,,,-99.99,593.0,HOBO +U30 +Weather +,2013-02-22 21:05:00,
2013-02-22 13:10:00,57.9,40.8,29.90,SW,226,7.4,10.7,52,0.00,,,-99.99,589.0,HOBO +U30 +Weather +,2013-02-22 21:10:00,
2013-02-22 13:15:00,58.4,40.9,29.90,SW,233,5.6,9.6,52,0.00,,,-99.99,583.0,HOBO +U30 +Weather +,2013-02-22 21:15:00,
2013-02-22 13:20:00,57.5,40.6,29.90,SW,227,7.4,11.2,53,0.00,,,-99.99,581.0,HOBO +U30 +Weather +,2013-02-22 21:20:00,
2013-02-22 13:25:00,57.8,41.5,29.90,SW,229,7.4,11.9,54,0.00,,,-99.99,577.0,HOBO +U30 +Weather +,2013-02-22 21:25:00,
2013-02-22 13:30:00,57.5,40.6,29.90,SW,226,7.4,10.7,53,0.00,,,-99.99,571.0,HOBO +U30 +Weather +,2013-02-22 21:30:00,
2013-02-22 13:35:00,57.2,41.1,29.89,SW,229,7.4,11.9,54,0.00,,,-99.99,567.0,HOBO +U30 +Weather +,2013-02-22 21:35:00,
2013-02-22 13:40:00,57.7,41.8,29.89,SW,227,6.7,11.9,55,0.00,,,-99.99,561.0,HOBO +U30 +Weather +,2013-02-22 21:40:00,
2013-02-22 13:45:00,57.6,42.0,29.89,SW,227,6.3,11.9,55,0.00,,,-99.99,552.0,HOBO +U30 +Weather +,2013-02-22 21:45:00,
2013-02-22 13:50:00,56.8,41.9,29.88,SW,225,7.4,14.1,57,0.00,,,-99.99,549.0,HOBO +U30 +Weather +,2013-02-22 21:50:00,
2013-02-22 13:55:00,56.2,42.8,29.88,SW,222,8.5,13.4,60,0.00,,,-99.99,543.0,HOBO +U30 +Weather +,2013-02-22 21:55:00,
2013-02-22 14:00:00,56.1,42.6,29.88,SW,234,7.4,11.9,60,0.00,,,-99.99,538.0,HOBO +U30 +Weather +,2013-02-22 22:00:00,
2013-02-22 14:05:00,56.6,42.9,29.88,SW,225,7.4,14.5,60,0.00,,,-99.99,528.0,HOBO +U30 +Weather +,2013-02-22 22:05:00,
2013-02-22 14:10:00,55.8,41.9,29.88,SW,230,7.8,14.1,59,0.00,,,-99.99,522.0,HOBO +U30 +Weather +,2013-02-22 22:10:00,
2013-02-22 14:15:00,55.3,42.7,29.88,SW,232,6.3,14.1,62,0.00,,,-99.99,512.0,HOBO +U30 +Weather +,2013-02-22 22:15:00,
2013-02-22 14:20:00,56.0,44.7,29.88,WSW,247,4.0,10.1,65,0.00,,,-99.99,504.0,HOBO +U30 +Weather +,2013-02-22 22:20:00,
2013-02-22 14:25:00,54.4,43.5,29.88,WSW,237,7.8,14.5,66,0.00,,,-99.99,494.0,HOBO +U30 +Weather +,2013-02-22 22:25:00,
2013-02-22 14:30:00,54.8,44.2,29.87,WSW,239,6.3,14.1,67,0.00,,,-99.99,486.0,HOBO +U30 +Weather +,2013-02-22 22:30:00,
2013-02-22 14:35:00,53.2,44.4,29.88,SW,232,8.5,14.5,71,0.00,,,-99.99,478.0,HOBO +U30 +Weather +,2013-02-22 22:35:00,
2013-02-22 14:40:00,54.3,44.9,29.88,SW,229,5.6,14.5,70,0.00,,,-99.99,472.0,HOBO +U30 +Weather +,2013-02-22 22:40:00,
2013-02-22 14:45:00,54.3,44.7,29.87,SW,232,6.7,13.0,69,0.00,,,-99.99,462.0,HOBO +U30 +Weather +,2013-02-22 22:45:00,
2013-02-22 14:50:00,54.4,44.9,29.88,SW,223,7.4,13.0,70,0.00,,,-99.99,448.0,HOBO +U30 +Weather +,2013-02-22 22:50:00,
2013-02-22 14:55:00,53.5,44.6,29.88,SW,233,7.8,15.2,71,0.00,,,-99.99,438.0,HOBO +U30 +Weather +,2013-02-22 22:55:00,
2013-02-22 15:00:00,54.4,45.5,29.88,SW,229,6.7,13.0,71,0.00,,,-99.99,433.0,HOBO +U30 +Weather +,2013-02-22 23:00:00,
2013-02-22 15:05:00,53.9,45.0,29.87,SW,232,8.5,15.9,71,0.00,,,-99.99,417.0,HOBO +U30 +Weather +,2013-02-22 23:05:00,
2013-02-22 15:10:00,54.2,45.4,29.87,SW,227,8.5,13.4,71,0.00,,,-99.99,406.0,HOBO +U30 +Weather +,2013-02-22 23:10:00,
2013-02-22 15:15:00,53.4,44.7,29.87,SW,226,9.6,15.9,72,0.00,,,-99.99,399.0,HOBO +U30 +Weather +,2013-02-22 23:15:00,
2013-02-22 15:20:00,52.7,44.8,29.87,SW,225,10.7,17.4,74,0.00,,,-99.99,383.0,HOBO +U30 +Weather +,2013-02-22 23:20:00,
2013-02-22 15:25:00,52.8,45.2,29.87,SW,223,10.1,19.7,75,0.00,,,-99.99,369.0,HOBO +U30 +Weather +,2013-02-22 23:25:00,
2013-02-22 15:30:00,52.4,45.3,29.87,SW,230,11.2,19.7,76,0.00,,,-99.99,363.0,HOBO +U30 +Weather +,2013-02-22 23:30:00,
2013-02-22 15:35:00,52.5,45.5,29.87,SW,232,11.2,17.4,77,0.00,,,-99.99,354.0,HOBO +U30 +Weather +,2013-02-22 23:35:00,
2013-02-22 15:40:00,53.0,46.1,29.87,WSW,240,9.6,17.4,77,0.00,,,-99.99,339.0,HOBO +U30 +Weather +,2013-02-22 23:40:00,
2013-02-22 15:45:00,52.6,45.4,29.87,SW,232,8.5,19.7,76,0.00,,,-99.99,326.0,HOBO +U30 +Weather +,2013-02-22 23:45:00,
2013-02-22 15:50:00,52.3,45.4,29.87,SW,227,10.1,18.1,77,0.00,,,-99.99,309.0,HOBO +U30 +Weather +,2013-02-22 23:50:00,
2013-02-22 15:55:00,52.2,45.3,29.87,SW,234,8.9,17.0,77,0.00,,,-99.99,294.0,HOBO +U30 +Weather +,2013-02-22 23:55:00,
2013-02-22 16:00:00,52.3,45.6,29.87,SW,236,8.5,15.2,77,0.00,,,-99.99,276.0,HOBO +U30 +Weather +,2013-02-23 00:00:00,
2013-02-22 16:05:00,51.9,45.4,29.87,SW,232,7.8,15.9,78,0.00,,,-99.99,258.0,HOBO +U30 +Weather +,2013-02-23 00:05:00,
2013-02-22 16:10:00,52.0,45.9,29.87,WSW,239,7.8,14.1,79,0.00,,,-99.99,242.0,HOBO +U30 +Weather +,2013-02-23 00:10:00,
2013-02-22 16:15:00,51.6,45.7,29.87,WSW,240,8.5,17.0,79,0.00,,,-99.99,228.0,HOBO +U30 +Weather +,2013-02-23 00:15:00,
2013-02-22 16:20:00,51.5,45.7,29.87,SW,234,8.5,17.4,80,0.00,,,-99.99,221.0,HOBO +U30 +Weather +,2013-02-23 00:20:00,
2013-02-22 16:25:00,51.0,45.3,29.86,WSW,239,8.9,21.5,80,0.00,,,-99.99,211.0,HOBO +U30 +Weather +,2013-02-23 00:25:00,
2013-02-22 16:30:00,51.5,45.9,29.86,WSW,244,7.8,15.2,81,0.00,,,-99.99,207.0,HOBO +U30 +Weather +,2013-02-23 00:30:00,
2013-02-22 16:35:00,51.6,46.1,29.86,WSW,247,7.8,19.2,81,0.00,,,-99.99,196.0,HOBO +U30 +Weather +,2013-02-23 00:35:00,
2013-02-22 16:40:00,51.0,45.6,29.86,WSW,239,8.5,15.9,81,0.00,,,-99.99,183.0,HOBO +U30 +Weather +,2013-02-23 00:40:00,
2013-02-22 16:45:00,51.3,46.1,29.87,WSW,244,7.4,16.3,82,0.00,,,-99.99,167.0,HOBO +U30 +Weather +,2013-02-23 00:45:00,
2013-02-22 16:50:00,51.5,46.1,29.86,WSW,244,6.3,13.4,81,0.00,,,-99.99,154.0,HOBO +U30 +Weather +,2013-02-23 00:50:00,
2013-02-22 16:55:00,51.2,45.8,29.86,SW,233,6.3,13.4,81,0.00,,,-99.99,129.0,HOBO +U30 +Weather +,2013-02-23 00:55:00,
2013-02-22 17:00:00,51.0,45.9,29.86,WSW,237,7.8,15.2,82,0.00,,,-99.99,127.0,HOBO +U30 +Weather +,2013-02-23 01:00:00,
2013-02-22 17:05:00,50.4,45.4,29.86,SW,233,7.8,18.1,83,0.00,,,-99.99,48.0,HOBO +U30 +Weather +,2013-02-23 01:05:00,
2013-02-22 17:10:00,49.9,45.6,29.86,SW,229,9.6,17.0,85,0.00,,,-99.99,51.0,HOBO +U30 +Weather +,2013-02-23 01:10:00,
2013-02-22 17:15:00,49.9,45.8,29.86,SW,229,7.4,12.3,85,0.00,,,-99.99,66.0,HOBO +U30 +Weather +,2013-02-23 01:15:00,
2013-02-22 17:20:00,49.7,45.8,29.86,SW,226,7.4,10.7,86,0.00,,,-99.99,49.0,HOBO +U30 +Weather +,2013-02-23 01:20:00,
2013-02-22 17:25:00,49.6,45.9,29.86,SW,230,8.5,15.9,86,0.00,,,-99.99,52.0,HOBO +U30 +Weather +,2013-02-23 01:25:00,
2013-02-22 17:30:00,49.5,45.8,29.87,SW,226,8.5,14.1,86,0.00,,,-99.99,42.0,HOBO +U30 +Weather +,2013-02-23 01:30:00,
2013-02-22 17:35:00,49.6,45.9,29.87,SW,225,6.3,10.7,87,0.00,,,-99.99,38.0,HOBO +U30 +Weather +,2013-02-23 01:35:00,
2013-02-22 17:40:00,49.2,45.7,29.87,SW,232,7.4,14.5,87,0.00,,,-99.99,21.0,HOBO +U30 +Weather +,2013-02-23 01:40:00,
2013-02-22 17:45:00,49.0,45.7,29.86,SW,232,8.5,13.4,88,0.00,,,-99.99,13.0,HOBO +U30 +Weather +,2013-02-23 01:45:00,
2013-02-22 17:50:00,48.8,45.6,29.86,SW,230,8.9,17.0,88,0.00,,,-99.99,7.0,HOBO +U30 +Weather +,2013-02-23 01:50:00,
2013-02-22 17:55:00,48.8,45.6,29.86,SW,232,9.6,18.1,88,0.00,,,-99.99,2.0,HOBO +U30 +Weather +,2013-02-23 01:55:00,
2013-02-22 18:00:00,48.7,45.7,29.86,SW,234,9.6,17.0,89,0.00,,,-99.99,1.0,HOBO +U30 +Weather +,2013-02-23 02:00:00,
2013-02-22 18:05:00,48.5,45.6,29.86,SW,232,9.6,17.4,89,0.00,,,-99.99,1.0,HOBO +U30 +Weather +,2013-02-23 02:05:00,
2013-02-22 18:10:00,48.5,45.5,29.86,SW,233,8.5,14.1,89,0.00,,,-99.99,1.0,HOBO +U30 +Weather +,2013-02-23 02:10:00,
2013-02-22 18:15:00,48.4,45.4,29.86,SW,229,7.8,16.3,89,0.00,,,-99.99,1.0,HOBO +U30 +Weather +,2013-02-23 02:15:00,
2013-02-22 18:20:00,48.3,45.4,29.86,SW,233,6.7,15.9,89,0.00,,,-99.99,1.0,HOBO +U30 +Weather +,2013-02-23 02:20:00,
2013-02-22 18:25:00,48.4,45.5,29.86,SW,223,6.3,10.7,89,0.00,,,-99.99,1.0,HOBO +U30 +Weather +,2013-02-23 02:25:00,
2013-02-22 18:30:00,48.4,45.3,29.86,SW,233,4.5,10.7,89,0.00,,,-99.99,1.0,HOBO +U30 +Weather +,2013-02-23 02:30:00,
2013-02-22 18:35:00,48.3,45.2,29.86,SW,233,6.3,14.1,89,0.00,,,-99.99,1.0,HOBO +U30 +Weather +,2013-02-23 02:35:00,
2013-02-22 18:40:00,48.4,45.4,29.86,SW,230,8.9,18.6,89,0.00,,,-99.99,1.0,HOBO +U30 +Weather +,2013-02-23 02:40:00,
2013-02-22 18:45:00,48.4,45.4,29.86,SW,234,10.7,18.1,89,0.00,,,-99.99,1.0,HOBO +U30 +Weather +,2013-02-23 02:45:00,
2013-02-22 18:50:00,48.4,45.4,29.87,SW,233,8.9,18.1,89,0.00,,,-99.99,1.0,HOBO +U30 +Weather +,2013-02-23 02:50:00,
2013-02-22 18:55:00,48.3,45.4,29.87,SW,229,8.5,15.9,89,0.00,,,-99.99,1.0,HOBO +U30 +Weather +,2013-02-23 02:55:00,
2013-02-22 19:00:00,48.1,45.2,29.87,WSW,240,6.7,18.1,89,0.00,,,-99.99,1.0,HOBO +U30 +Weather +,2013-02-23 03:00:00,
2013-02-22 19:05:00,48.1,45.1,29.87,WSW,244,5.6,11.2,89,0.00,,,-99.99,1.0,HOBO +U30 +Weather +,2013-02-23 03:05:00,
2013-02-22 19:10:00,48.1,45.1,29.88,WSW,254,5.1,12.3,89,0.00,,,-99.99,1.0,HOBO +U30 +Weather +,2013-02-23 03:10:00,
2013-02-22 19:15:00,48.2,45.1,29.88,WSW,248,5.6,13.4,88,0.00,,,-99.99,1.0,HOBO +U30 +Weather +,2013-02-23 03:15:00,
2013-02-22 19:20:00,48.2,44.9,29.88,WSW,244,5.6,13.0,88,0.00,,,-99.99,1.0,HOBO +U30 +Weather +,2013-02-23 03:20:00,
2013-02-22 19:25:00,48.1,44.8,29.88,SW,234,4.5,10.7,88,0.00,,,-99.99,1.0,HOBO +U30 +Weather +,2013-02-23 03:25:00,
2013-02-22 19:30:00,48.2,44.8,29.88,SW,236,4.5,9.6,87,0.00,,,-99.99,1.0,HOBO +U30 +Weather +,2013-02-23 03:30:00,
2013-02-22 19:35:00,48.4,44.8,29.88,SW,234,6.3,10.1,87,0.00,,,-99.99,1.0,HOBO +U30 +Weather +,2013-02-23 03:35:00,
2013-02-22 19:40:00,48.4,44.5,29.88,WSW,244,5.1,10.1,86,0.00,,,-99.99,1.0,HOBO +U30 +Weather +,2013-02-23 03:40:00,
2013-02-22 19:45:00,48.4,44.5,29.89,SW,236,4.5,9.6,86,0.00,,,-99.99,1.0,HOBO +U30 +Weather +,2013-02-23 03:45:00,
2013-02-22 19:50:00,48.5,44.4,29.88,WSW,239,4.5,10.7,85,0.00,,,-99.99,1.0,HOBO +U30 +Weather +,2013-02-23 03:50:00,
2013-02-22 19:55:00,48.6,44.3,29.88,SW,234,4.5,9.6,85,0.00,,,-99.99,1.0,HOBO +U30 +Weather +,2013-02-23 03:55:00,
2013-02-22 20:00:00,48.6,44.3,29.88,SW,230,4.5,8.5,84,0.00,,,-99.99,1.0,HOBO +U30 +Weather +,2013-02-23 04:00:00,
2013-02-22 20:05:00,48.5,44.1,29.88,WSW,246,4.0,8.5,84,0.00,,,-99.99,1.0,HOBO +U30 +Weather +,2013-02-23 04:05:00,
2013-02-22 20:10:00,48.5,44.4,29.87,SW,222,4.5,10.1,85,0.00,,,-99.99,1.0,HOBO +U30 +Weather +,2013-02-23 04:10:00,
2013-02-22 20:15:00,48.3,44.7,29.87,SW,226,4.5,8.9,87,0.00,,,-99.99,1.0,HOBO +U30 +Weather +,2013-02-23 04:15:00,
2013-02-22 20:20:00,48.3,44.9,29.87,SW,223,3.4,7.8,87,0.00,,,-99.99,1.0,HOBO +U30 +Weather +,2013-02-23 04:20:00,
2013-02-22 20:25:00,48.3,45.0,29.87,SW,230,2.2,6.3,88,0.00,,,-99.99,1.0,HOBO +U30 +Weather +,2013-02-23 04:25:00,
2013-02-22 20:30:00,48.3,44.9,29.87,SSW,209,0.7,5.1,88,0.00,,,-99.99,1.0,HOBO +U30 +Weather +,2013-02-23 04:30:00,
2013-02-22 20:35:00,48.1,44.8,29.88,West,260,0.7,4.0,88,0.00,,,-99.99,1.0,HOBO +U30 +Weather +,2013-02-23 04:35:00,
2013-02-22 20:40:00,48.1,44.9,29.87,SW,227,1.1,4.5,88,0.00,,,-99.99,1.0,HOBO +U30 +Weather +,2013-02-23 04:40:00,
2013-02-22 20:45:00,48.0,45.0,29.88,SW,225,2.9,9.6,89,0.00,,,-99.99,1.0,HOBO +U30 +Weather +,2013-02-23 04:45:00,
2013-02-22 20:50:00,48.0,45.3,29.88,SW,233,4.5,8.5,90,0.00,,,-99.99,1.0,HOBO +U30 +Weather +,2013-02-23 04:50:00,
2013-02-22 20:55:00,47.8,45.3,29.88,WSW,248,3.4,7.8,90,0.00,,,-99.99,1.0,HOBO +U30 +Weather +,2013-02-23 04:55:00,
2013-02-22 21:00:00,47.8,45.4,29.88,WSW,246,4.5,13.0,91,0.00,,,-99.99,1.0,HOBO +U30 +Weather +,2013-02-23 05:00:00,
2013-02-22 21:05:00,47.8,45.5,29.88,WSW,240,5.6,13.4,91,0.00,,,-99.99,1.0,HOBO +U30 +Weather +,2013-02-23 05:05:00,
2013-02-22 21:10:00,47.9,45.5,29.89,WSW,247,7.4,15.2,91,0.00,,,-99.99,1.0,HOBO +U30 +Weather +,2013-02-23 05:10:00,
2013-02-22 21:15:00,47.8,45.5,29.89,WSW,250,5.1,15.9,91,0.00,,,-99.99,1.0,HOBO +U30 +Weather +,2013-02-23 05:15:00,
2013-02-22 21:20:00,47.8,45.4,29.89,WSW,251,3.4,10.1,91,0.00,,,-99.99,1.0,HOBO +U30 +Weather +,2013-02-23 05:20:00,
2013-02-22 21:25:00,47.7,45.4,29.90,West,272,3.4,11.2,91,0.00,,,-99.99,1.0,HOBO +U30 +Weather +,2013-02-23 05:25:00,
2013-02-22 21:30:00,47.7,45.5,29.89,SW,233,4.5,11.9,92,0.00,,,-99.99,1.0,HOBO +U30 +Weather +,2013-02-23 05:30:00,
2013-02-22 21:35:00,47.7,45.5,29.90,WSW,244,4.0,11.2,92,0.00,,,-99.99,1.0,HOBO +U30 +Weather +,2013-02-23 05:35:00,
2013-02-22 21:40:00,47.7,45.6,29.90,WSW,253,3.4,10.1,92,0.00,,,-99.99,1.0,HOBO +U30 +Weather +,2013-02-23 05:40:00,
2013-02-22 21:45:00,47.9,45.7,29.90,WSW,257,2.2,7.8,92,0.00,,,-99.99,1.0,HOBO +U30 +Weather +,2013-02-23 05:45:00,
2013-02-22 21:50:00,48.0,45.8,29.90,WSW,243,2.9,9.6,92,0.00,,,-99.99,1.0,HOBO +U30 +Weather +,2013-02-23 05:50:00,
2013-02-22 21:55:00,48.1,46.0,29.90,WSW,240,4.5,11.2,92,0.00,,,-99.99,1.0,HOBO +U30 +Weather +,2013-02-23 05:55:00,
2013-02-22 22:00:00,48.2,45.9,29.90,WSW,251,5.6,11.9,91,0.00,,,-99.99,1.0,HOBO +U30 +Weather +,2013-02-23 06:00:00,
2013-02-22 22:05:00,48.3,45.9,29.90,SW,236,4.5,17.0,91,0.00,,,-99.99,1.0,HOBO +U30 +Weather +,2013-02-23 06:05:00,
2013-02-22 22:10:00,48.3,45.9,29.90,WSW,244,7.4,16.3,91,0.00,,,-99.99,1.0,HOBO +U30 +Weather +,2013-02-23 06:10:00,
2013-02-22 22:15:00,48.4,45.9,29.91,WSW,244,6.3,12.3,91,0.00,,,-99.99,1.0,HOBO +U30 +Weather +,2013-02-23 06:15:00,
2013-02-22 22:20:00,48.5,45.9,29.90,SW,234,6.3,13.0,90,0.00,,,-99.99,1.0,HOBO +U30 +Weather +,2013-02-23 06:20:00,
2013-02-22 22:25:00,48.5,45.8,29.91,SW,236,5.1,10.1,90,0.00,,,-99.99,1.0,HOBO +U30 +Weather +,2013-02-23 06:25:00,
2013-02-22 22:30:00,48.5,45.7,29.91,WSW,247,5.1,11.2,89,0.00,,,-99.99,1.0,HOBO +U30 +Weather +,2013-02-23 06:30:00,
2013-02-22 22:35:00,48.5,45.6,29.91,SW,233,5.1,11.9,89,0.00,,,-99.99,1.0,HOBO +U30 +Weather +,2013-02-23 06:35:00,
2013-02-22 22:40:00,48.5,45.5,29.91,SW,236,6.3,12.3,89,0.00,,,-99.99,1.0,HOBO +U30 +Weather +,2013-02-23 06:40:00,
2013-02-22 22:45:00,48.5,45.6,29.91,SW,232,6.7,16.3,89,0.00,,,-99.99,1.0,HOBO +U30 +Weather +,2013-02-23 06:45:00,
2013-02-22 22:50:00,48.5,45.6,29.91,WSW,237,5.6,11.2,89,0.00,,,-99.99,1.0,HOBO +U30 +Weather +,2013-02-23 06:50:00,
2013-02-22 22:55:00,48.7,45.5,29.91,WSW,240,4.5,8.9,88,0.00,,,-99.99,1.0,HOBO +U30 +Weather +,2013-02-23 06:55:00,
2013-02-22 23:00:00,48.8,45.1,29.92,WSW,250,5.6,14.1,86,0.00,,,-99.99,1.0,HOBO +U30 +Weather +,2013-02-23 07:00:00,
2013-02-22 23:05:00,48.8,45.0,29.92,WSW,240,6.3,12.3,86,0.00,,,-99.99,1.0,HOBO +U30 +Weather +,2013-02-23 07:05:00,
2013-02-22 23:10:00,48.5,44.8,29.91,WSW,237,5.1,10.7,86,0.00,,,-99.99,1.0,HOBO +U30 +Weather +,2013-02-23 07:10:00,
2013-02-22 23:15:00,48.4,44.8,29.91,SW,230,5.6,13.4,87,0.00,,,-99.99,1.0,HOBO +U30 +Weather +,2013-02-23 07:15:00,
2013-02-22 23:20:00,48.4,44.7,29.91,SW,233,7.4,15.9,87,0.00,,,-99.99,1.0,HOBO +U30 +Weather +,2013-02-23 07:20:00,
2013-02-22 23:25:00,48.5,44.8,29.91,SW,233,6.3,11.9,87,0.00,,,-99.99,1.0,HOBO +U30 +Weather +,2013-02-23 07:25:00,
2013-02-22 23:30:00,48.6,44.8,29.91,SW,236,5.1,15.2,86,0.00,,,-99.99,1.0,HOBO +U30 +Weather +,2013-02-23 07:30:00,
2013-02-22 23:35:00,48.8,44.7,29.92,SW,236,6.3,13.0,85,0.00,,,-99.99,1.0,HOBO +U30 +Weather +,2013-02-23 07:35:00,
2013-02-22 23:40:00,48.8,44.5,29.91,SW,232,6.3,12.3,85,0.00,,,-99.99,1.0,HOBO +U30 +Weather +,2013-02-23 07:40:00,
2013-02-22 23:45:00,48.7,44.5,29.91,SW,232,6.7,11.9,85,0.00,,,-99.99,1.0,HOBO +U30 +Weather +,2013-02-23 07:45:00,
2013-02-22 23:50:00,48.7,44.5,29.91,WSW,240,5.6,12.3,85,0.00,,,-99.99,1.0,HOBO +U30 +Weather +,2013-02-23 07:50:00,
2013-02-22 23:55:00,48.6,44.4,29.91,SW,229,4.0,7.8,85,0.00,,,-99.99,1.0,HOBO +U30 +Weather +,2013-02-23 07:55:00,